Independence, Kansas
Current Conditions -  °F | °C
As of 5:15 AM on Thursday 23 Oct 2014 (Local Time) from KIDP Reporting Station
Light Rain Light Rain  
Wind Chill: 59°   Ceiling: 10000
Heat Index: 59°   Visibility: 7mi
Dew Point: 55°   Wind: 6mph
Humidity: 88%   Direction: 190°S
Pressure: 30.12"   Gusts: NA
Location:  37.23°N, 95.71°W
Report Text: KIDP 231015Z AUTO 19005KT 7SM -RA BKN100 BKN120 15/13 A3012 RMK AO2
Loading
Personal Weather Stations






























Interactive Weather Map New forecast layout! Learn more

10-Day Weather Forecast

Advertisements
Track Severe Weather on mobile